sensor_id;sensor_type;location;lat;lon;timestamp;P1;durP1;ratioP1;P2;durP2;ratioP2
9739;SDS011;4909;42.680;26.324;2023-12-22T00:00:31;122.00;;;58.27;;
9739;SDS011;4909;42.680;26.324;2023-12-22T00:02:58;125.57;;;58.57;;
9739;SDS011;4909;42.680;26.324;2023-12-22T00:05:25;117.43;;;55.20;;
9739;SDS011;4909;42.680;26.324;2023-12-22T00:07:53;119.30;;;55.97;;
9739;SDS011;4909;42.680;26.324;2023-12-22T00:10:21;115.30;;;55.70;;
9739;SDS011;4909;42.680;26.324;2023-12-22T00:12:48;115.23;;;55.37;;
9739;SDS011;4909;42.680;26.324;2023-12-22T00:15:15;119.43;;;56.67;;
9739;SDS011;4909;42.680;26.324;2023-12-22T00:17:42;117.43;;;57.17;;
9739;SDS011;4909;42.680;26.324;2023-12-22T00:20:09;118.13;;;56.43;;
9739;SDS011;4909;42.680;26.324;2023-12-22T00:22:38;113.40;;;54.07;;
9739;SDS011;4909;42.680;26.324;2023-12-22T00:25:07;114.67;;;55.07;;
9739;SDS011;4909;42.680;26.324;2023-12-22T00:27:35;114.03;;;55.87;;
9739;SDS011;4909;42.680;26.324;2023-12-22T00:30:02;113.73;;;55.10;;
9739;SDS011;4909;42.680;26.324;2023-12-22T00:32:29;109.00;;;53.17;;
9739;SDS011;4909;42.680;26.324;2023-12-22T00:34:56;112.37;;;54.23;;
9739;SDS011;4909;42.680;26.324;2023-12-22T00:37:23;114.87;;;53.80;;
9739;SDS011;4909;42.680;26.324;2023-12-22T00:39:50;118.17;;;55.47;;
9739;SDS011;4909;42.680;26.324;2023-12-22T00:42:19;113.20;;;55.20;;
9739;SDS011;4909;42.680;26.324;2023-12-22T00:44:46;114.17;;;54.37;;
9739;SDS011;4909;42.680;26.324;2023-12-22T00:47:13;113.70;;;54.30;;
9739;SDS011;4909;42.680;26.324;2023-12-22T00:49:40;113.90;;;55.43;;
9739;SDS011;4909;42.680;26.324;2023-12-22T00:52:07;118.90;;;55.87;;
9739;SDS011;4909;42.680;26.324;2023-12-22T00:54:34;114.10;;;54.23;;
9739;SDS011;4909;42.680;26.324;2023-12-22T00:57:01;116.20;;;55.67;;
9739;SDS011;4909;42.680;26.324;2023-12-22T00:59:29;117.37;;;55.37;;
9739;SDS011;4909;42.680;26.324;2023-12-22T01:01:56;116.47;;;56.37;;
9739;SDS011;4909;42.680;26.324;2023-12-22T01:04:23;120.30;;;55.30;;
9739;SDS011;4909;42.680;26.324;2023-12-22T01:06:50;120.60;;;55.67;;
9739;SDS011;4909;42.680;26.324;2023-12-22T01:09:18;119.80;;;56.17;;
9739;SDS011;4909;42.680;26.324;2023-12-22T01:11:45;117.10;;;54.10;;
9739;SDS011;4909;42.680;26.324;2023-12-22T01:14:12;117.93;;;54.77;;
9739;SDS011;4909;42.680;26.324;2023-12-22T01:16:41;120.43;;;56.70;;
9739;SDS011;4909;42.680;26.324;2023-12-22T01:19:08;119.87;;;54.20;;
9739;SDS011;4909;42.680;26.324;2023-12-22T01:21:35;119.33;;;54.87;;
9739;SDS011;4909;42.680;26.324;2023-12-22T01:24:02;120.67;;;55.13;;
9739;SDS011;4909;42.680;26.324;2023-12-22T01:26:29;120.43;;;54.57;;
9739;SDS011;4909;42.680;26.324;2023-12-22T01:28:56;121.30;;;57.20;;
9739;SDS011;4909;42.680;26.324;2023-12-22T01:31:23;118.73;;;54.60;;
9739;SDS011;4909;42.680;26.324;2023-12-22T01:33:52;123.33;;;56.50;;
9739;SDS011;4909;42.680;26.324;2023-12-22T01:36:19;119.77;;;55.13;;
9739;SDS011;4909;42.680;26.324;2023-12-22T01:38:45;119.50;;;55.57;;
9739;SDS011;4909;42.680;26.324;2023-12-22T01:41:13;125.17;;;55.60;;
9739;SDS011;4909;42.680;26.324;2023-12-22T01:43:40;122.53;;;55.17;;
9739;SDS011;4909;42.680;26.324;2023-12-22T01:46:07;121.33;;;54.50;;
9739;SDS011;4909;42.680;26.324;2023-12-22T01:48:34;124.87;;;56.70;;
9739;SDS011;4909;42.680;26.324;2023-12-22T01:51:03;121.40;;;55.03;;
9739;SDS011;4909;42.680;26.324;2023-12-22T01:53:32;120.63;;;54.20;;
9739;SDS011;4909;42.680;26.324;2023-12-22T01:55:59;121.63;;;54.87;;
9739;SDS011;4909;42.680;26.324;2023-12-22T01:58:28;121.57;;;54.97;;
9739;SDS011;4909;42.680;26.324;2023-12-22T02:00:56;124.27;;;56.63;;
9739;SDS011;4909;42.680;26.324;2023-12-22T02:03:23;121.30;;;54.37;;
9739;SDS011;4909;42.680;26.324;2023-12-22T02:05:51;116.77;;;54.83;;
9739;SDS011;4909;42.680;26.324;2023-12-22T02:08:19;119.87;;;55.30;;
9739;SDS011;4909;42.680;26.324;2023-12-22T02:10:49;120.93;;;54.53;;
9739;SDS011;4909;42.680;26.324;2023-12-22T02:13:16;121.33;;;54.10;;
9739;SDS011;4909;42.680;26.324;2023-12-22T02:15:43;125.07;;;56.23;;
9739;SDS011;4909;42.680;26.324;2023-12-22T02:18:12;121.63;;;54.10;;
9739;SDS011;4909;42.680;26.324;2023-12-22T02:20:44;123.80;;;55.00;;
9739;SDS011;4909;42.680;26.324;2023-12-22T02:23:13;132.27;;;58.53;;
9739;SDS011;4909;42.680;26.324;2023-12-22T02:25:40;131.03;;;57.00;;
9739;SDS011;4909;42.680;26.324;2023-12-22T02:28:08;132.50;;;56.83;;
9739;SDS011;4909;42.680;26.324;2023-12-22T02:30:42;132.37;;;56.73;;
9739;SDS011;4909;42.680;26.324;2023-12-22T02:33:15;130.63;;;56.27;;
9739;SDS011;4909;42.680;26.324;2023-12-22T02:35:43;132.23;;;55.63;;
9739;SDS011;4909;42.680;26.324;2023-12-22T02:38:13;135.50;;;57.83;;
9739;SDS011;4909;42.680;26.324;2023-12-22T02:40:42;137.23;;;57.70;;
9739;SDS011;4909;42.680;26.324;2023-12-22T02:43:10;136.87;;;58.27;;
9739;SDS011;4909;42.680;26.324;2023-12-22T02:45:37;133.67;;;57.77;;
9739;SDS011;4909;42.680;26.324;2023-12-22T02:48:05;132.90;;;57.07;;
9739;SDS011;4909;42.680;26.324;2023-12-22T02:50:32;135.27;;;58.80;;
9739;SDS011;4909;42.680;26.324;2023-12-22T02:52:59;133.47;;;56.27;;
9739;SDS011;4909;42.680;26.324;2023-12-22T02:55:27;135.30;;;57.83;;
9739;SDS011;4909;42.680;26.324;2023-12-22T02:57:54;137.10;;;56.87;;
9739;SDS011;4909;42.680;26.324;2023-12-22T03:00:21;137.70;;;58.13;;
9739;SDS011;4909;42.680;26.324;2023-12-22T03:02:48;134.77;;;56.90;;
9739;SDS011;4909;42.680;26.324;2023-12-22T03:05:15;139.63;;;58.57;;
9739;SDS011;4909;42.680;26.324;2023-12-22T03:07:42;133.23;;;56.10;;
9739;SDS011;4909;42.680;26.324;2023-12-22T03:10:09;139.53;;;60.00;;
9739;SDS011;4909;42.680;26.324;2023-12-22T03:12:38;139.17;;;59.17;;
9739;SDS011;4909;42.680;26.324;2023-12-22T03:15:05;134.97;;;57.30;;
9739;SDS011;4909;42.680;26.324;2023-12-22T03:17:33;137.20;;;58.27;;
9739;SDS011;4909;42.680;26.324;2023-12-22T03:20:00;139.73;;;57.83;;
9739;SDS011;4909;42.680;26.324;2023-12-22T03:22:27;138.00;;;57.63;;
9739;SDS011;4909;42.680;26.324;2023-12-22T03:24:54;140.87;;;58.80;;
9739;SDS011;4909;42.680;26.324;2023-12-22T03:27:21;146.13;;;59.33;;
9739;SDS011;4909;42.680;26.324;2023-12-22T03:29:49;146.00;;;58.17;;
9739;SDS011;4909;42.680;26.324;2023-12-22T03:32:16;151.63;;;60.23;;
9739;SDS011;4909;42.680;26.324;2023-12-22T03:34:44;153.17;;;59.37;;
9739;SDS011;4909;42.680;26.324;2023-12-22T03:37:11;157.13;;;61.87;;
9739;SDS011;4909;42.680;26.324;2023-12-22T03:39:38;156.43;;;59.87;;
9739;SDS011;4909;42.680;26.324;2023-12-22T03:42:05;155.60;;;61.17;;
9739;SDS011;4909;42.680;26.324;2023-12-22T03:44:32;154.77;;;59.60;;
9739;SDS011;4909;42.680;26.324;2023-12-22T03:47:00;158.83;;;61.37;;
9739;SDS011;4909;42.680;26.324;2023-12-22T03:49:27;156.93;;;61.83;;
9739;SDS011;4909;42.680;26.324;2023-12-22T03:51:54;157.97;;;60.50;;
9739;SDS011;4909;42.680;26.324;2023-12-22T03:54:21;156.37;;;60.37;;
9739;SDS011;4909;42.680;26.324;2023-12-22T03:56:48;156.27;;;60.70;;
9739;SDS011;4909;42.680;26.324;2023-12-22T03:59:15;162.83;;;61.10;;
9739;SDS011;4909;42.680;26.324;2023-12-22T04:01:43;157.57;;;61.77;;
9739;SDS011;4909;42.680;26.324;2023-12-22T04:04:12;156.90;;;60.20;;
9739;SDS011;4909;42.680;26.324;2023-12-22T04:06:39;160.67;;;61.23;;
9739;SDS011;4909;42.680;26.324;2023-12-22T04:09:06;166.50;;;63.30;;
9739;SDS011;4909;42.680;26.324;2023-12-22T04:11:33;164.40;;;62.10;;
9739;SDS011;4909;42.680;26.324;2023-12-22T04:14:02;176.60;;;63.17;;
9739;SDS011;4909;42.680;26.324;2023-12-22T04:16:29;191.63;;;66.17;;
9739;SDS011;4909;42.680;26.324;2023-12-22T04:18:56;187.23;;;67.17;;
9739;SDS011;4909;42.680;26.324;2023-12-22T04:21:24;194.73;;;68.00;;
9739;SDS011;4909;42.680;26.324;2023-12-22T04:23:51;178.73;;;62.93;;
9739;SDS011;4909;42.680;26.324;2023-12-22T04:26:18;190.27;;;66.63;;
9739;SDS011;4909;42.680;26.324;2023-12-22T04:28:45;188.97;;;64.80;;
9739;SDS011;4909;42.680;26.324;2023-12-22T04:31:12;193.37;;;66.07;;
9739;SDS011;4909;42.680;26.324;2023-12-22T04:33:39;183.90;;;64.87;;
9739;SDS011;4909;42.680;26.324;2023-12-22T04:36:06;184.83;;;65.03;;
9739;SDS011;4909;42.680;26.324;2023-12-22T04:38:34;177.20;;;64.03;;
9739;SDS011;4909;42.680;26.324;2023-12-22T04:41:01;180.67;;;65.57;;
9739;SDS011;4909;42.680;26.324;2023-12-22T04:43:29;151.47;;;62.07;;
9739;SDS011;4909;42.680;26.324;2023-12-22T04:45:55;131.30;;;58.83;;
9739;SDS011;4909;42.680;26.324;2023-12-22T04:48:22;128.30;;;58.30;;
9739;SDS011;4909;42.680;26.324;2023-12-22T04:50:49;126.20;;;57.27;;
9739;SDS011;4909;42.680;26.324;2023-12-22T04:53:16;128.43;;;61.60;;
9739;SDS011;4909;42.680;26.324;2023-12-22T04:55:45;127.33;;;59.50;;
9739;SDS011;4909;42.680;26.324;2023-12-22T04:58:12;123.03;;;56.93;;
9739;SDS011;4909;42.680;26.324;2023-12-22T05:00:39;121.60;;;56.90;;
9739;SDS011;4909;42.680;26.324;2023-12-22T05:03:05;123.03;;;58.00;;
9739;SDS011;4909;42.680;26.324;2023-12-22T05:05:33;122.37;;;58.10;;
9739;SDS011;4909;42.680;26.324;2023-12-22T05:08:00;131.10;;;60.30;;
9739;SDS011;4909;42.680;26.324;2023-12-22T05:10:27;121.90;;;58.50;;
9739;SDS011;4909;42.680;26.324;2023-12-22T05:12:56;122.37;;;56.73;;
9739;SDS011;4909;42.680;26.324;2023-12-22T05:15:23;121.93;;;57.93;;
9739;SDS011;4909;42.680;26.324;2023-12-22T05:17:50;127.87;;;58.43;;
9739;SDS011;4909;42.680;26.324;2023-12-22T05:20:17;134.03;;;60.53;;
9739;SDS011;4909;42.680;26.324;2023-12-22T05:22:44;130.33;;;61.07;;
9739;SDS011;4909;42.680;26.324;2023-12-22T05:25:12;130.67;;;59.23;;
9739;SDS011;4909;42.680;26.324;2023-12-22T05:27:40;133.13;;;61.17;;
9739;SDS011;4909;42.680;26.324;2023-12-22T05:30:10;137.13;;;59.90;;
9739;SDS011;4909;42.680;26.324;2023-12-22T05:32:38;147.60;;;62.43;;
9739;SDS011;4909;42.680;26.324;2023-12-22T05:35:05;174.37;;;64.03;;
9739;SDS011;4909;42.680;26.324;2023-12-22T05:37:32;193.77;;;68.47;;
9739;SDS011;4909;42.680;26.324;2023-12-22T05:39:59;191.70;;;67.43;;
9739;SDS011;4909;42.680;26.324;2023-12-22T05:42:26;178.67;;;67.33;;
9739;SDS011;4909;42.680;26.324;2023-12-22T05:44:53;178.23;;;65.07;;
9739;SDS011;4909;42.680;26.324;2023-12-22T05:47:21;177.27;;;66.40;;
9739;SDS011;4909;42.680;26.324;2023-12-22T05:49:48;173.07;;;65.40;;
9739;SDS011;4909;42.680;26.324;2023-12-22T05:52:15;172.07;;;64.13;;
9739;SDS011;4909;42.680;26.324;2023-12-22T05:54:42;168.63;;;64.83;;
9739;SDS011;4909;42.680;26.324;2023-12-22T05:57:09;169.40;;;63.50;;
9739;SDS011;4909;42.680;26.324;2023-12-22T05:59:39;174.50;;;64.93;;
9739;SDS011;4909;42.680;26.324;2023-12-22T06:02:06;140.97;;;62.97;;
9739;SDS011;4909;42.680;26.324;2023-12-22T06:04:34;152.87;;;62.57;;
9739;SDS011;4909;42.680;26.324;2023-12-22T06:07:01;149.70;;;63.07;;
9739;SDS011;4909;42.680;26.324;2023-12-22T06:09:29;159.23;;;64.63;;
9739;SDS011;4909;42.680;26.324;2023-12-22T06:11:56;159.40;;;62.27;;
9739;SDS011;4909;42.680;26.324;2023-12-22T06:14:24;167.80;;;65.97;;
9739;SDS011;4909;42.680;26.324;2023-12-22T06:16:51;172.73;;;67.50;;
9739;SDS011;4909;42.680;26.324;2023-12-22T06:19:18;161.73;;;62.77;;
9739;SDS011;4909;42.680;26.324;2023-12-22T06:21:48;178.30;;;67.43;;
9739;SDS011;4909;42.680;26.324;2023-12-22T06:24:15;189.73;;;68.77;;
9739;SDS011;4909;42.680;26.324;2023-12-22T06:26:42;189.80;;;67.47;;
9739;SDS011;4909;42.680;26.324;2023-12-22T06:29:09;206.23;;;70.27;;
9739;SDS011;4909;42.680;26.324;2023-12-22T06:31:36;210.77;;;72.80;;
9739;SDS011;4909;42.680;26.324;2023-12-22T06:34:03;182.60;;;67.37;;
9739;SDS011;4909;42.680;26.324;2023-12-22T06:36:30;173.60;;;66.77;;
9739;SDS011;4909;42.680;26.324;2023-12-22T06:38:58;193.70;;;70.33;;
9739;SDS011;4909;42.680;26.324;2023-12-22T06:41:26;203.20;;;69.63;;
9739;SDS011;4909;42.680;26.324;2023-12-22T06:43:54;189.63;;;71.07;;
9739;SDS011;4909;42.680;26.324;2023-12-22T06:46:22;181.87;;;68.47;;
9739;SDS011;4909;42.680;26.324;2023-12-22T06:48:51;200.70;;;72.97;;
9739;SDS011;4909;42.680;26.324;2023-12-22T06:51:19;207.67;;;72.70;;
9739;SDS011;4909;42.680;26.324;2023-12-22T06:53:46;196.40;;;72.00;;
9739;SDS011;4909;42.680;26.324;2023-12-22T06:56:19;197.80;;;71.47;;
9739;SDS011;4909;42.680;26.324;2023-12-22T06:58:46;183.23;;;68.80;;
9739;SDS011;4909;42.680;26.324;2023-12-22T07:01:20;163.07;;;67.20;;
9739;SDS011;4909;42.680;26.324;2023-12-22T07:03:48;197.30;;;74.37;;
9739;SDS011;4909;42.680;26.324;2023-12-22T07:06:16;181.10;;;70.63;;
9739;SDS011;4909;42.680;26.324;2023-12-22T07:08:43;163.77;;;67.90;;
9739;SDS011;4909;42.680;26.324;2023-12-22T07:11:21;149.00;;;64.97;;
9739;SDS011;4909;42.680;26.324;2023-12-22T07:13:48;154.50;;;66.90;;
9739;SDS011;4909;42.680;26.324;2023-12-22T07:16:15;156.03;;;69.43;;
9739;SDS011;4909;42.680;26.324;2023-12-22T07:18:42;164.50;;;72.30;;
9739;SDS011;4909;42.680;26.324;2023-12-22T07:21:09;177.33;;;77.30;;
9739;SDS011;4909;42.680;26.324;2023-12-22T07:23:43;187.97;;;81.13;;
9739;SDS011;4909;42.680;26.324;2023-12-22T07:26:10;198.17;;;83.73;;
9739;SDS011;4909;42.680;26.324;2023-12-22T07:28:39;206.23;;;86.80;;
9739;SDS011;4909;42.680;26.324;2023-12-22T07:31:06;212.87;;;87.67;;
9739;SDS011;4909;42.680;26.324;2023-12-22T07:33:33;177.77;;;84.20;;
9739;SDS011;4909;42.680;26.324;2023-12-22T07:36:00;186.53;;;87.90;;
9739;SDS011;4909;42.680;26.324;2023-12-22T07:38:27;199.50;;;90.90;;
9739;SDS011;4909;42.680;26.324;2023-12-22T07:40:54;202.33;;;96.77;;
9739;SDS011;4909;42.680;26.324;2023-12-22T07:43:21;205.60;;;91.83;;
9739;SDS011;4909;42.680;26.324;2023-12-22T07:45:49;210.20;;;94.23;;
9739;SDS011;4909;42.680;26.324;2023-12-22T07:48:24;219.80;;;93.37;;
9739;SDS011;4909;42.680;26.324;2023-12-22T07:50:54;214.93;;;91.93;;
9739;SDS011;4909;42.680;26.324;2023-12-22T07:53:23;214.40;;;88.77;;
9739;SDS011;4909;42.680;26.324;2023-12-22T07:55:50;222.20;;;94.23;;
9739;SDS011;4909;42.680;26.324;2023-12-22T07:58:17;247.97;;;93.57;;
9739;SDS011;4909;42.680;26.324;2023-12-22T08:00:44;274.93;;;92.03;;
9739;SDS011;4909;42.680;26.324;2023-12-22T08:03:13;258.27;;;91.27;;
9739;SDS011;4909;42.680;26.324;2023-12-22T08:05:40;262.97;;;88.53;;
9739;SDS011;4909;42.680;26.324;2023-12-22T08:08:07;267.13;;;93.20;;
9739;SDS011;4909;42.680;26.324;2023-12-22T08:10:34;253.03;;;89.00;;
9739;SDS011;4909;42.680;26.324;2023-12-22T08:13:01;242.47;;;84.87;;
9739;SDS011;4909;42.680;26.324;2023-12-22T08:15:28;240.07;;;84.53;;
9739;SDS011;4909;42.680;26.324;2023-12-22T08:17:57;237.50;;;89.00;;
9739;SDS011;4909;42.680;26.324;2023-12-22T08:20:25;233.73;;;83.57;;
9739;SDS011;4909;42.680;26.324;2023-12-22T08:22:54;243.37;;;83.23;;
9739;SDS011;4909;42.680;26.324;2023-12-22T08:25:21;241.23;;;81.63;;
9739;SDS011;4909;42.680;26.324;2023-12-22T08:27:48;237.87;;;83.53;;
9739;SDS011;4909;42.680;26.324;2023-12-22T08:30:15;206.13;;;80.47;;
9739;SDS011;4909;42.680;26.324;2023-12-22T08:32:42;176.10;;;76.03;;
9739;SDS011;4909;42.680;26.324;2023-12-22T08:35:09;174.57;;;73.83;;
9739;SDS011;4909;42.680;26.324;2023-12-22T08:37:37;179.67;;;77.23;;
9739;SDS011;4909;42.680;26.324;2023-12-22T08:40:04;178.20;;;77.87;;
9739;SDS011;4909;42.680;26.324;2023-12-22T08:42:32;183.73;;;80.93;;
9739;SDS011;4909;42.680;26.324;2023-12-22T08:44:59;183.53;;;78.73;;
9739;SDS011;4909;42.680;26.324;2023-12-22T08:47:27;184.00;;;82.20;;
9739;SDS011;4909;42.680;26.324;2023-12-22T08:49:54;196.40;;;85.40;;
9739;SDS011;4909;42.680;26.324;2023-12-22T08:52:21;187.77;;;86.23;;
9739;SDS011;4909;42.680;26.324;2023-12-22T08:54:50;187.63;;;84.23;;
9739;SDS011;4909;42.680;26.324;2023-12-22T08:57:16;171.47;;;77.80;;
9739;SDS011;4909;42.680;26.324;2023-12-22T08:59:43;184.70;;;79.67;;
9739;SDS011;4909;42.680;26.324;2023-12-22T09:02:11;209.83;;;81.80;;
9739;SDS011;4909;42.680;26.324;2023-12-22T09:04:38;232.50;;;85.47;;
9739;SDS011;4909;42.680;26.324;2023-12-22T09:07:05;198.67;;;79.80;;
9739;SDS011;4909;42.680;26.324;2023-12-22T09:09:32;204.93;;;84.37;;
9739;SDS011;4909;42.680;26.324;2023-12-22T09:12:00;175.97;;;83.67;;
9739;SDS011;4909;42.680;26.324;2023-12-22T09:14:29;194.60;;;83.17;;
9739;SDS011;4909;42.680;26.324;2023-12-22T09:16:56;188.20;;;83.70;;
9739;SDS011;4909;42.680;26.324;2023-12-22T09:19:23;180.00;;;83.57;;
9739;SDS011;4909;42.680;26.324;2023-12-22T09:21:50;190.50;;;85.63;;
9739;SDS011;4909;42.680;26.324;2023-12-22T09:24:16;165.23;;;80.50;;
9739;SDS011;4909;42.680;26.324;2023-12-22T09:26:42;145.07;;;77.03;;
9739;SDS011;4909;42.680;26.324;2023-12-22T09:29:11;137.27;;;72.73;;
9739;SDS011;4909;42.680;26.324;2023-12-22T09:31:38;175.97;;;72.83;;
9739;SDS011;4909;42.680;26.324;2023-12-22T09:34:05;209.57;;;79.13;;
9739;SDS011;4909;42.680;26.324;2023-12-22T09:36:32;80.43;;;57.97;;
9739;SDS011;4909;42.680;26.324;2023-12-22T09:38:59;59.23;;;50.77;;
9739;SDS011;4909;42.680;26.324;2023-12-22T09:41:26;51.30;;;46.33;;
9739;SDS011;4909;42.680;26.324;2023-12-22T09:43:53;52.83;;;47.50;;
9739;SDS011;4909;42.680;26.324;2023-12-22T09:46:23;52.23;;;47.10;;
9739;SDS011;4909;42.680;26.324;2023-12-22T09:48:52;55.13;;;49.57;;
9739;SDS011;4909;42.680;26.324;2023-12-22T09:51:20;61.73;;;54.53;;
9739;SDS011;4909;42.680;26.324;2023-12-22T09:53:47;67.17;;;56.00;;
9739;SDS011;4909;42.680;26.324;2023-12-22T09:56:16;73.30;;;59.67;;
9739;SDS011;4909;42.680;26.324;2023-12-22T09:58:45;65.70;;;58.43;;
9739;SDS011;4909;42.680;26.324;2023-12-22T10:01:13;76.10;;;59.73;;
9739;SDS011;4909;42.680;26.324;2023-12-22T10:03:42;85.67;;;61.47;;
9739;SDS011;4909;42.680;26.324;2023-12-22T10:06:09;82.17;;;63.13;;
9739;SDS011;4909;42.680;26.324;2023-12-22T10:08:37;78.93;;;60.43;;
9739;SDS011;4909;42.680;26.324;2023-12-22T10:11:05;92.57;;;64.30;;
9739;SDS011;4909;42.680;26.324;2023-12-22T10:13:36;95.30;;;65.07;;
9739;SDS011;4909;42.680;26.324;2023-12-22T10:16:05;92.97;;;65.63;;
9739;SDS011;4909;42.680;26.324;2023-12-22T10:18:33;115.77;;;72.87;;
9739;SDS011;4909;42.680;26.324;2023-12-22T10:21:01;106.70;;;74.23;;
9739;SDS011;4909;42.680;26.324;2023-12-22T10:23:29;101.30;;;71.87;;
9739;SDS011;4909;42.680;26.324;2023-12-22T10:25:57;120.70;;;78.40;;
9739;SDS011;4909;42.680;26.324;2023-12-22T10:28:26;106.83;;;76.63;;
9739;SDS011;4909;42.680;26.324;2023-12-22T10:30:54;111.27;;;79.80;;
9739;SDS011;4909;42.680;26.324;2023-12-22T10:33:24;114.10;;;80.50;;
9739;SDS011;4909;42.680;26.324;2023-12-22T10:35:53;116.23;;;79.63;;
9739;SDS011;4909;42.680;26.324;2023-12-22T10:38:22;114.07;;;80.03;;
9739;SDS011;4909;42.680;26.324;2023-12-22T10:40:49;107.20;;;79.80;;
9739;SDS011;4909;42.680;26.324;2023-12-22T10:43:16;114.13;;;80.17;;
9739;SDS011;4909;42.680;26.324;2023-12-22T10:45:43;113.23;;;76.57;;
9739;SDS011;4909;42.680;26.324;2023-12-22T10:48:11;115.57;;;82.50;;
9739;SDS011;4909;42.680;26.324;2023-12-22T10:50:38;116.77;;;82.63;;
9739;SDS011;4909;42.680;26.324;2023-12-22T10:53:06;122.70;;;81.30;;
9739;SDS011;4909;42.680;26.324;2023-12-22T10:55:35;114.27;;;77.33;;
9739;SDS011;4909;42.680;26.324;2023-12-22T10:58:02;107.00;;;80.57;;
9739;SDS011;4909;42.680;26.324;2023-12-22T11:00:30;109.20;;;78.30;;
9739;SDS011;4909;42.680;26.324;2023-12-22T11:03:01;114.33;;;78.40;;
9739;SDS011;4909;42.680;26.324;2023-12-22T11:05:33;111.83;;;76.03;;
9739;SDS011;4909;42.680;26.324;2023-12-22T11:08:04;110.47;;;72.93;;
9739;SDS011;4909;42.680;26.324;2023-12-22T11:10:35;103.77;;;69.80;;
9739;SDS011;4909;42.680;26.324;2023-12-22T11:13:06;100.83;;;70.03;;
9739;SDS011;4909;42.680;26.324;2023-12-22T11:15:35;108.40;;;73.60;;
9739;SDS011;4909;42.680;26.324;2023-12-22T11:18:04;104.43;;;70.93;;
9739;SDS011;4909;42.680;26.324;2023-12-22T11:20:32;98.37;;;69.53;;
9739;SDS011;4909;42.680;26.324;2023-12-22T11:22:59;95.70;;;67.43;;
9739;SDS011;4909;42.680;26.324;2023-12-22T11:25:28;93.33;;;63.87;;
9739;SDS011;4909;42.680;26.324;2023-12-22T11:27:59;92.77;;;62.53;;
9739;SDS011;4909;42.680;26.324;2023-12-22T11:30:28;88.57;;;60.53;;
9739;SDS011;4909;42.680;26.324;2023-12-22T11:32:57;92.77;;;63.80;;
9739;SDS011;4909;42.680;26.324;2023-12-22T11:35:24;90.87;;;62.30;;
9739;SDS011;4909;42.680;26.324;2023-12-22T11:37:53;94.93;;;62.20;;
9739;SDS011;4909;42.680;26.324;2023-12-22T11:40:21;98.17;;;65.00;;
9739;SDS011;4909;42.680;26.324;2023-12-22T11:42:48;100.40;;;63.87;;
9739;SDS011;4909;42.680;26.324;2023-12-22T11:45:18;94.87;;;63.67;;
9739;SDS011;4909;42.680;26.324;2023-12-22T11:47:48;96.87;;;67.03;;
9739;SDS011;4909;42.680;26.324;2023-12-22T11:50:27;95.10;;;62.30;;
9739;SDS011;4909;42.680;26.324;2023-12-22T11:52:56;94.50;;;63.70;;
9739;SDS011;4909;42.680;26.324;2023-12-22T11:58:32;93.00;;;61.40;;
9739;SDS011;4909;42.680;26.324;2023-12-22T12:01:02;82.97;;;61.30;;
9739;SDS011;4909;42.680;26.324;2023-12-22T12:03:31;81.53;;;59.37;;
9739;SDS011;4909;42.680;26.324;2023-12-22T12:08:58;87.47;;;59.70;;
9739;SDS011;4909;42.680;26.324;2023-12-22T12:14:28;84.00;;;58.20;;
9739;SDS011;4909;42.680;26.324;2023-12-22T12:17:03;84.80;;;58.07;;
9739;SDS011;4909;42.680;26.324;2023-12-22T12:19:33;91.67;;;61.43;;
9739;SDS011;4909;42.680;26.324;2023-12-22T12:22:02;93.40;;;63.57;;
9739;SDS011;4909;42.680;26.324;2023-12-22T12:24:30;97.87;;;63.37;;
9739;SDS011;4909;42.680;26.324;2023-12-22T12:26:57;94.30;;;62.73;;
9739;SDS011;4909;42.680;26.324;2023-12-22T12:29:24;93.23;;;62.50;;
9739;SDS011;4909;42.680;26.324;2023-12-22T12:31:51;101.00;;;64.67;;
9739;SDS011;4909;42.680;26.324;2023-12-22T12:34:20;98.90;;;63.73;;
9739;SDS011;4909;42.680;26.324;2023-12-22T12:36:49;94.60;;;62.17;;
9739;SDS011;4909;42.680;26.324;2023-12-22T12:39:18;97.97;;;63.77;;
9739;SDS011;4909;42.680;26.324;2023-12-22T12:41:53;98.83;;;65.17;;
9739;SDS011;4909;42.680;26.324;2023-12-22T12:44:21;100.97;;;67.20;;
9739;SDS011;4909;42.680;26.324;2023-12-22T12:46:50;98.40;;;65.83;;
9739;SDS011;4909;42.680;26.324;2023-12-22T12:49:17;101.53;;;66.23;;
9739;SDS011;4909;42.680;26.324;2023-12-22T12:51:49;97.10;;;64.23;;
9739;SDS011;4909;42.680;26.324;2023-12-22T12:54:16;99.10;;;66.77;;
9739;SDS011;4909;42.680;26.324;2023-12-22T12:56:43;96.33;;;65.10;;
9739;SDS011;4909;42.680;26.324;2023-12-22T12:59:11;99.17;;;64.77;;
9739;SDS011;4909;42.680;26.324;2023-12-22T13:01:39;101.20;;;67.00;;
9739;SDS011;4909;42.680;26.324;2023-12-22T13:04:07;105.03;;;67.63;;
9739;SDS011;4909;42.680;26.324;2023-12-22T13:06:35;113.03;;;69.83;;
9739;SDS011;4909;42.680;26.324;2023-12-22T13:09:09;100.30;;;65.77;;
9739;SDS011;4909;42.680;26.324;2023-12-22T13:11:38;91.50;;;64.03;;
9739;SDS011;4909;42.680;26.324;2023-12-22T13:14:07;95.70;;;63.57;;
9739;SDS011;4909;42.680;26.324;2023-12-22T13:16:34;99.33;;;66.03;;
9739;SDS011;4909;42.680;26.324;2023-12-22T13:19:01;96.57;;;64.23;;
9739;SDS011;4909;42.680;26.324;2023-12-22T13:21:28;96.33;;;64.57;;
9739;SDS011;4909;42.680;26.324;2023-12-22T13:24:10;95.10;;;65.10;;
9739;SDS011;4909;42.680;26.324;2023-12-22T13:26:37;96.93;;;62.50;;
9739;SDS011;4909;42.680;26.324;2023-12-22T13:29:05;102.87;;;65.30;;
9739;SDS011;4909;42.680;26.324;2023-12-22T13:31:32;92.47;;;63.17;;
9739;SDS011;4909;42.680;26.324;2023-12-22T13:33:59;94.13;;;63.50;;
9739;SDS011;4909;42.680;26.324;2023-12-22T13:36:26;95.80;;;63.70;;
9739;SDS011;4909;42.680;26.324;2023-12-22T13:38:53;89.97;;;62.57;;
9739;SDS011;4909;42.680;26.324;2023-12-22T13:41:22;92.83;;;62.97;;
9739;SDS011;4909;42.680;26.324;2023-12-22T13:43:49;91.37;;;62.93;;
9739;SDS011;4909;42.680;26.324;2023-12-22T13:46:16;90.53;;;61.23;;
9739;SDS011;4909;42.680;26.324;2023-12-22T13:48:44;89.83;;;65.90;;
9739;SDS011;4909;42.680;26.324;2023-12-22T13:51:11;85.73;;;67.03;;
9739;SDS011;4909;42.680;26.324;2023-12-22T13:53:46;85.90;;;70.70;;
9739;SDS011;4909;42.680;26.324;2023-12-22T13:56:13;79.40;;;59.23;;
9739;SDS011;4909;42.680;26.324;2023-12-22T13:58:44;81.47;;;59.53;;
9739;SDS011;4909;42.680;26.324;2023-12-22T14:01:12;84.60;;;63.47;;
9739;SDS011;4909;42.680;26.324;2023-12-22T14:03:41;85.57;;;62.00;;
9739;SDS011;4909;42.680;26.324;2023-12-22T14:06:08;82.73;;;64.40;;
9739;SDS011;4909;42.680;26.324;2023-12-22T14:08:37;80.87;;;60.20;;
9739;SDS011;4909;42.680;26.324;2023-12-22T14:11:06;78.40;;;58.17;;
9739;SDS011;4909;42.680;26.324;2023-12-22T14:13:33;81.03;;;58.97;;
9739;SDS011;4909;42.680;26.324;2023-12-22T14:16:05;97.27;;;60.70;;
9739;SDS011;4909;42.680;26.324;2023-12-22T14:18:33;80.23;;;56.33;;
9739;SDS011;4909;42.680;26.324;2023-12-22T14:21:00;73.30;;;54.83;;
9739;SDS011;4909;42.680;26.324;2023-12-22T14:23:29;66.00;;;52.30;;
9739;SDS011;4909;42.680;26.324;2023-12-22T14:25:56;71.27;;;53.60;;
9739;SDS011;4909;42.680;26.324;2023-12-22T14:28:23;73.13;;;52.70;;
9739;SDS011;4909;42.680;26.324;2023-12-22T14:30:50;69.93;;;53.50;;
9739;SDS011;4909;42.680;26.324;2023-12-22T14:33:18;69.77;;;51.80;;
9739;SDS011;4909;42.680;26.324;2023-12-22T14:35:45;68.30;;;52.50;;